Time;durP1;ratioP1;P1;durP2;ratioP2;P2;SDS_P1;SDS_P2;PMS_P1;PMS_P2;Temp;Humidity;BMP_temperature;BMP_pressure;BME280_temperature;BME280_humidity;BME280_pressure;Samples;Min_cycle;Max_cycle;Signal;HPM_P1;HPM_P2
2023/12/08 00:00:18;;;;;;;0.00;0.00;;;;;;;6.69;100.00;98882.00;4795949;29;20138;-81
2023/12/08 00:03:36;;;;;;;0.00;0.00;;;;;;;6.63;100.00;98883.97;4777109;29;20187;-82
2023/12/08 00:06:02;;;;;;;0.00;0.00;;;;;;;6.49;100.00;98866.63;4785990;29;20043;-81
2023/12/08 00:08:40;;;;;;;0.00;0.00;;;;;;;6.69;100.00;98898.31;4813593;29;20125;-84
2023/12/08 00:14:51;;;;;;;0.00;0.00;;;;;;;6.55;100.00;98888.03;4794834;29;20052;-80
2023/12/08 00:17:32;;;;;;;0.10;0.10;;;;;;;6.28;100.00;98855.81;4820186;29;20035;-83
2023/12/08 00:20:32;;;;;;;0.00;0.00;;;;;;;6.62;100.00;98920.34;4821090;29;20091;-84
2023/12/08 00:23:27;;;;;;;;;;;;;;;;;;;;;
2023/12/08 00:25:55;;;;;;;;;;;;;;;6.51;100.00;98918.75;4829926;29;20068;-81
2023/12/08 00:28:27;;;;;;;0.00;0.00;;;;;;;6.31;100.00;98898.72;4827275;29;19917;-82
2023/12/08 00:30:52;;;;;;;0.00;0.00;;;;;;;6.40;100.00;98926.91;4833026;29;20029;-82
2023/12/08 00:33:41;;;;;;;0.00;0.00;;;;;;;6.23;100.00;98907.41;4826647;29;20056;-82
2023/12/08 00:36:57;;;;;;;0.00;0.00;;;;;;;5.81;100.00;98860.50;4838701;29;20579;-81
2023/12/08 00:39:29;;;;;;;0.00;0.00;;;;;;;6.17;100.00;98935.66;4779723;29;20051;-83
2023/12/08 00:45:55;;;;;;;;;;;;;;;;;;;;;
2023/12/08 00:48:41;;;;;;;0.00;0.00;;;;;;;5.55;100.00;98878.69;4774235;29;20041;-81
2023/12/08 00:51:07;;;;;;;0.00;0.00;;;;;;;5.45;100.00;98881.34;4826386;29;20117;-81
2023/12/08 00:54:01;;;;;;;0.00;0.00;;;;;;;5.67;100.00;98928.03;4844368;29;20402;-83
2023/12/08 00:56:48;;;;;;;;;;;;;;;;;;;;;
2023/12/08 00:59:16;;;;;;;0.00;0.00;;;;;;;5.46;100.00;98899.25;4844183;29;20042;-82
2023/12/08 01:02:31;;;;;;;0.10;0.10;;;;;;;5.47;100.00;98907.13;4822741;29;20032;-82
2023/12/08 01:05:26;;;;;;;0.00;0.00;;;;;;;5.66;100.00;98937.25;4835639;29;20128;-83
2023/12/08 01:08:03;;;;;;;0.00;0.00;;;;;;;5.55;100.00;98936.44;4833738;29;20026;-81
2023/12/08 01:10:54;;;;;;;0.00;0.00;;;;;;;5.61;100.00;98929.13;4821222;29;20030;-80
2023/12/08 01:14:15;;;;;;;0.00;0.00;;;;;;;5.73;100.00;98954.06;4833981;29;20037;-81
2023/12/08 01:16:55;;;;;;;0.10;0.10;;;;;;;5.85;100.00;98966.56;4790970;29;20097;-83
2023/12/08 01:19:27;;;;;;;0.00;0.00;;;;;;;5.41;100.00;98895.44;4819847;29;20132;-85
2023/12/08 01:22:04;;;;;;;0.00;0.00;;;;;;;5.81;100.00;98963.59;4830645;29;20089;-85
2023/12/08 01:24:54;;;;;;;0.00;0.00;;;;;;;5.57;100.00;98938.88;4838418;29;20029;-85
2023/12/08 01:27:23;;;;;;;0.00;0.00;;;;;;;5.33;100.00;98912.28;4823342;29;20053;-85
2023/12/08 01:30:05;;;;;;;0.00;0.00;;;;;;;5.50;100.00;98951.88;4831672;29;20078;-82
2023/12/08 01:32:33;;;;;;;0.00;0.00;;;;;;;5.17;100.00;98913.28;4816297;29;20860;-82
2023/12/08 01:35:19;;;;;;;0.10;0.10;;;;;;;5.19;100.00;98922.00;4834512;29;20044;-81
2023/12/08 01:38:35;;;;;;;;;;;;;;;;;;;;;
2023/12/08 01:41:52;;;;;;;0.00;0.00;;;;;;;5.21;100.00;98930.66;4846405;29;20038;-82
2023/12/08 01:44:55;;;;;;;;;;;;;;;;;;;;;
2023/12/08 01:47:28;;;;;;;0.00;0.00;;;;;;;5.46;100.00;98986.03;4773174;29;20238;-84
2023/12/08 01:49:53;;;;;;;0.00;0.00;;;;;;;5.30;100.00;98983.28;4783649;29;20083;-83
2023/12/08 01:53:03;;;;;;;;;;;;;;;;;;;;;
2023/12/08 01:55:57;;;;;;;0.00;0.00;;;;;;;5.09;100.00;98976.97;4775281;29;20042;-82
2023/12/08 01:58:25;;;;;;;0.00;0.00;;;;;;;4.79;100.00;98955.97;4765679;30;20027;-80
2023/12/08 02:01:07;;;;;;;;;;;;;;;;;;;;;
2023/12/08 02:03:45;;;;;;;0.00;0.00;;;;;;;4.51;100.00;98958.81;4847610;29;20018;-80
2023/12/08 02:09:48;;;;;;;0.00;0.00;;;;;;;4.71;100.00;98982.47;4844697;29;20477;-83
2023/12/08 02:12:32;;;;;;;0.00;0.00;;;;;;;4.63;100.00;98964.03;4844770;29;20480;-84
2023/12/08 02:15:42;;;;;;;0.10;0.10;;;;;;;4.58;100.00;98955.88;4830395;29;20493;-82
2023/12/08 02:18:17;;;;;;;;;;;;;;;;;;;;;
2023/12/08 02:20:43;;;;;;;0.00;0.00;;;;;;;5.19;100.00;99030.41;4846717;29;20036;-82
2023/12/08 02:23:09;;;;;;;0.10;0.10;;;;;;;5.00;100.00;98995.63;4834371;29;20038;-81
2023/12/08 02:25:56;;;;;;;0.00;0.00;;;;;;;5.34;100.00;99044.00;4823491;29;20050;-79
2023/12/08 02:28:21;;;;;;;0.10;0.10;;;;;;;5.23;100.00;99028.78;4806567;29;20088;-81
2023/12/08 02:31:06;;;;;;;0.00;0.00;;;;;;;5.33;100.00;99045.09;4823907;29;20094;-80
2023/12/08 02:33:59;;;;;;;0.00;0.00;;;;;;;5.18;100.00;99034.19;4821213;29;20050;-80
2023/12/08 02:36:39;;;;;;;;;;;;;;;;;;;;;
2023/12/08 02:39:19;;;;;;;;;;;;;;;;;;;;;
2023/12/08 02:42:24;;;;;;;0.00;0.00;;;;;;;4.62;100.00;98994.88;4828673;29;20030;-80
2023/12/08 02:44:49;;;;;;;0.00;0.00;;;;;;;4.76;100.00;99026.91;4816465;29;20034;-81
2023/12/08 02:47:17;;;;;;;0.00;0.00;;;;;;;4.65;100.00;99015.22;4828223;29;20033;-81
2023/12/08 02:49:53;;;;;;;0.10;0.10;;;;;;;4.64;100.00;99013.56;4828706;29;20026;-80
2023/12/08 02:52:21;;;;;;;0.00;0.00;;;;;;;4.62;100.00;99032.78;4830887;29;20519;-79
2023/12/08 02:55:28;;;;;;;0.00;0.00;;;;;;;4.34;100.00;99004.19;4824878;29;20037;-80
2023/12/08 03:01:19;;;;;;;;;;;;;;;;;;;;;
2023/12/08 03:04:04;;;;;;;;;;;;;;;;;;;;;
2023/12/08 03:06:39;;;;;;;;;;;;;;;4.66;100.00;99055.56;4830067;29;20377;-82
2023/12/08 03:09:04;;;;;;;0.10;0.10;;;;;;;4.35;100.00;99017.47;4814699;29;19963;-84
2023/12/08 03:11:35;;;;;;;0.00;0.00;;;;;;;4.39;100.00;99019.66;4818226;29;20286;-85
2023/12/08 03:14:11;;;;;;;0.00;0.00;;;;;;;4.39;100.00;99012.31;4839809;29;20116;-84
2023/12/08 03:16:44;;;;;;;0.10;0.10;;;;;;;4.35;100.00;98978.72;4827789;29;20057;-84
2023/12/08 03:19:15;;;;;;;0.10;0.10;;;;;;;4.82;100.00;99033.97;4836204;29;20022;-85
2023/12/08 03:21:43;;;;;;;0.00;0.00;;;;;;;4.87;100.00;99023.19;4829115;29;20025;-85
2023/12/08 03:24:11;;;;;;;0.00;0.00;;;;;;;4.71;100.00;98990.59;4833650;29;20117;-85
2023/12/08 03:26:40;;;;;;;0.00;0.00;;;;;;;5.18;100.00;99039.59;4825331;29;20127;-85
2023/12/08 03:29:30;;;;;;;0.10;0.10;;;;;;;4.78;100.00;98976.03;4833417;29;20030;-84
2023/12/08 03:32:06;;;;;;;;;;;;;;;;;;;;;
2023/12/08 03:35:00;;;;;;;0.00;0.00;;;;;;;4.94;100.00;98999.38;4836645;29;20120;-85
2023/12/08 03:37:26;;;;;;;0.10;0.10;;;;;;;4.59;100.00;98960.22;4819935;29;20465;-84
2023/12/08 03:39:56;;;;;;;0.00;0.00;;;;;;;4.95;100.00;99013.75;4832101;29;20034;-84
2023/12/08 03:42:31;;;;;;;0.00;0.00;;;;;;;4.79;100.00;98993.88;4814659;29;20128;-85
2023/12/08 03:45:08;;;;;;;0.00;0.00;;;;;;;5.01;100.00;99037.91;4824007;29;21073;-82
2023/12/08 03:47:33;;;;;;;0.10;0.10;;;;;;;4.69;100.00;98995.47;4828773;29;20116;-84
2023/12/08 03:50:23;;;;;;;0.10;0.10;;;;;;;4.76;100.00;99027.75;4824853;29;20120;-84
2023/12/08 03:53:02;;;;;;;;;;;;;;;;;;;;;
2023/12/08 03:55:28;;;;;;;0.10;0.10;;;;;;;4.46;100.00;98982.34;4826572;29;20042;-85
2023/12/08 03:57:54;;;;;;;0.00;0.00;;;;;;;4.49;100.00;98988.03;4834084;29;20143;-82
2023/12/08 04:00:46;;;;;;;0.00;0.00;;;;;;;4.53;100.00;99010.00;4842207;29;20026;-86
2023/12/08 04:04:03;;;;;;;0.00;0.00;;;;;;;4.40;100.00;99013.16;4834389;29;20050;-82
2023/12/08 04:07:20;;;;;;;0.00;0.00;;;;;;;4.29;100.00;98991.44;4745535;30;20051;-81
2023/12/08 04:10:13;;;;;;;0.00;0.00;;;;;;;4.42;100.00;99008.28;4787442;29;20080;-80
2023/12/08 04:12:51;;;;;;;0.00;0.00;;;;;;;4.70;100.00;99072.09;4829227;29;20114;-83
2023/12/08 04:15:42;;;;;;;0.00;0.00;;;;;;;4.42;100.00;99048.91;4821643;29;20034;-81
2023/12/08 04:18:21;;;;;;;0.00;0.00;;;;;;;4.46;100.00;99055.44;4818409;29;20102;-81
2023/12/08 04:24:55;;;;;;;;;;;;;;;;;;;;;
2023/12/08 04:28:14;;;;;;;0.00;0.00;;;;;;;4.69;100.00;99021.75;4826963;29;20050;-80
2023/12/08 04:31:20;;;;;;;0.00;0.00;;;;;;;5.07;100.00;99058.53;4812626;29;20474;-81
2023/12/08 04:33:46;;;;;;;0.10;0.10;;;;;;;4.91;100.00;99032.44;4825170;29;20064;-81
2023/12/08 04:36:17;;;;;;;0.00;0.00;;;;;;;4.83;100.00;99011.25;4824063;29;20116;-81
2023/12/08 04:38:46;;;;;;;0.00;0.00;;;;;;;4.83;100.00;99030.22;4831973;29;20033;-79
2023/12/08 04:41:22;;;;;;;;;;;;;;;;;;;;;
2023/12/08 04:43:47;;;;;;;0.00;0.00;;;;;;;4.88;100.00;99035.66;4831376;29;20033;-80
2023/12/08 04:46:41;;;;;;;;;;;;;;;;;;;;;
2023/12/08 04:50:00;;;;;;;;;;;;;;;;;;;;;
2023/12/08 04:52:42;;;;;;;;;;;;;;;;;;;;;
2023/12/08 04:55:46;;;;;;;0.00;0.00;;;;;;;5.24;100.00;99068.34;4828361;29;20026;-81
2023/12/08 04:58:51;;;;;;;;;;;;;;;;;;;;;
2023/12/08 05:01:20;;;;;;;;;;;;;;;5.38;100.00;99077.63;4814675;29;20030;-81
2023/12/08 05:04:08;;;;;;;0.00;0.00;;;;;;;5.30;100.00;99070.03;4824622;29;19912;-80
2023/12/08 05:06:44;;;;;;;0.00;0.00;;;;;;;5.28;100.00;99058.63;4810864;29;20406;-80
2023/12/08 05:09:38;;;;;;;0.00;0.00;;;;;;;5.49;100.00;99099.38;4818826;29;20030;-81
2023/12/08 05:12:14;;;;;;;0.00;0.00;;;;;;;5.38;100.00;99080.34;4817367;29;20037;-82
2023/12/08 05:15:19;;;;;;;;;;;;;;;;;;;;;
2023/12/08 05:17:45;;;;;;;0.10;0.10;;;;;;;5.09;100.00;99043.91;4866955;29;20025;-84
2023/12/08 05:20:38;;;;;;;0.00;0.00;;;;;;;5.17;100.00;99067.78;4834861;29;20065;-84
2023/12/08 05:26:20;;;;;;;0.00;0.00;;;;;;;5.15;100.00;99072.66;4821412;29;20050;-80
2023/12/08 05:29:17;;;;;;;0.00;0.00;;;;;;;5.10;100.00;99094.31;4827404;29;20782;-80
2023/12/08 05:31:50;;;;;;;0.00;0.00;;;;;;;5.17;100.00;99109.25;4822622;29;20121;-79
2023/12/08 05:34:18;;;;;;;0.03;0.03;;;;;;;4.77;100.00;99061.06;4824523;29;20053;-80
2023/12/08 05:39:42;;;;;;;;;;;;;;;;;;;;;
2023/12/08 05:42:31;;;;;;;0.00;0.00;;;;;;;4.95;100.00;99109.41;4827085;29;20028;-83
2023/12/08 05:45:00;;;;;;;0.03;0.03;;;;;;;5.03;100.00;99125.16;4831099;29;20429;-82
2023/12/08 05:47:34;;;;;;;0.00;0.00;;;;;;;4.98;100.00;99119.72;4844784;29;20097;-81
2023/12/08 05:50:21;;;;;;;0.00;0.00;;;;;;;4.72;100.00;99059.94;4830267;29;20061;-81
2023/12/08 05:53:34;;;;;;;0.00;0.00;;;;;;;4.91;100.00;99094.75;4835714;29;20030;-83
2023/12/08 05:56:13;;;;;;;;;;;;;;;;;;;;;
2023/12/08 05:59:29;;;;;;;;;;;;;;;;;;;;;
2023/12/08 06:02:26;;;;;;;0.10;0.10;;;;;;;5.02;100.00;99134.38;4835339;29;20117;-81
2023/12/08 06:05:49;;;;;;;0.10;0.10;;;;;;;5.01;100.00;99143.56;4839069;29;20018;-82
2023/12/08 06:08:53;;;;;;;;;;;;;;;;;;;;;
2023/12/08 06:11:44;;;;;;;0.00;0.00;;;;;;;4.53;100.00;99083.09;4834403;29;20141;-82
2023/12/08 06:15:00;;;;;;;0.00;0.00;;;;;;;4.75;100.00;99117.38;4843712;29;20025;-83
2023/12/08 06:17:47;;;;;;;0.00;0.00;;;;;;;4.79;100.00;99134.72;4831340;29;20067;-83
2023/12/08 06:23:43;;;;;;;0.10;0.10;;;;;;;4.54;100.00;99123.44;4839988;29;20086;-80
2023/12/08 06:26:27;;;;;;;;;;;;;;;;;;;;;
2023/12/08 06:28:57;;;;;;;0.08;0.08;;;;;;;4.64;100.00;99166.03;4828755;29;20045;-84
2023/12/08 06:31:35;;;;;;;0.00;0.00;;;;;;;4.36;100.00;99105.69;4829959;29;20072;-82
2023/12/08 06:34:03;;;;;;;0.10;0.10;;;;;;;4.57;100.00;99122.13;4815689;29;20505;-78
2023/12/08 06:36:44;;;;;;;;;;;;;;;;;;;;;
2023/12/08 06:39:14;;;;;;;0.00;0.00;;;;;;;5.10;100.00;99145.81;4823939;29;20037;-79
2023/12/08 06:41:44;;;;;;;0.00;0.00;;;;;;;5.02;100.00;99137.09;4826574;29;20042;-80
2023/12/08 06:44:13;;;;;;;0.10;0.10;;;;;;;5.02;100.00;99138.97;4810849;29;20489;-80
2023/12/08 06:47:02;;;;;;;0.00;0.00;;;;;;;4.99;100.00;99124.03;4832157;29;20045;-80
2023/12/08 06:50:11;;;;;;;0.10;0.10;;;;;;;4.73;100.00;99093.25;4815390;29;20034;-80
2023/12/08 06:52:52;;;;;;;0.00;0.00;;;;;;;5.05;100.00;99149.28;4824809;29;20493;-80
2023/12/08 06:55:32;;;;;;;0.00;0.00;;;;;;;4.60;100.00;99088.28;4828743;29;20038;-80
2023/12/08 07:01:41;;;;;;;0.00;0.00;;;;;;;4.88;100.00;99171.13;4780873;29;20067;-80
2023/12/08 07:04:06;;;;;;;0.00;0.00;;;;;;;4.62;100.00;99122.16;4770859;29;20122;-82
2023/12/08 07:06:39;;;;;;;0.00;0.00;;;;;;;5.00;100.00;99174.44;4764034;29;20159;-82
2023/12/08 07:09:17;;;;;;;0.00;0.00;;;;;;;4.95;100.00;99160.88;4768023;29;20042;-81
2023/12/08 07:11:45;;;;;;;0.00;0.00;;;;;;;4.82;100.00;99145.03;4802066;29;20054;-81
2023/12/08 07:14:37;;;;;;;0.10;0.10;;;;;;;4.90;100.00;99167.03;4820558;29;20034;-83
2023/12/08 07:17:05;;;;;;;0.00;0.00;;;;;;;4.71;100.00;99150.38;4832641;29;20037;-80
2023/12/08 07:20:23;;;;;;;;;;;;;;;;;;;;;
2023/12/08 07:26:31;;;;;;;0.00;0.00;;;;;;;4.74;100.00;99181.53;4725548;30;20132;-82
2023/12/08 07:29:05;;;;;;;0.00;0.00;;;;;;;4.18;100.00;99106.88;4830861;29;20025;-85
2023/12/08 07:31:45;;;;;;;0.00;0.00;;;;;;;4.25;100.00;99131.03;4820967;29;20018;-84
2023/12/08 07:34:11;;;;;;;0.10;0.10;;;;;;;4.40;100.00;99159.31;4818212;29;20035;-85
2023/12/08 07:37:12;;;;;;;0.10;0.10;;;;;;;4.42;100.00;99146.34;5129195;27;20397;-86
2023/12/08 07:39:41;;;;;;;0.00;0.00;;;;;;;4.62;100.00;99170.88;5069505;28;20471;-85
2023/12/08 07:42:18;;;;;;;0.00;0.00;;;;;;;4.31;100.00;99119.19;5081040;28;20050;-85
2023/12/08 07:44:55;;;;;;;;;;;;;;;;;;;;;
2023/12/08 07:47:23;;;;;;;0.00;0.00;;;;;;;4.56;100.00;99180.03;5081697;28;20024;-84
2023/12/08 07:50:12;;;;;;;;;;;;;;;;;;;;;
2023/12/08 07:52:59;;;;;;;0.00;0.00;;;;;;;4.33;100.00;99176.56;5082069;28;20039;-82
2023/12/08 07:56:06;;;;;;;0.10;0.10;;;;;;;4.30;100.00;99189.81;5086076;28;20028;-83
2023/12/08 08:05:45;;;;;;;0.00;0.00;;;;;;;4.13;100.00;99160.13;4982014;28;20070;-82
2023/12/08 08:08:32;;;;;;;;;;;;;;;;;;;;;
2023/12/08 08:21:25;;;;;;;;;;;;;;;;;;;;;
2023/12/08 08:24:50;;;;;;;0.00;0.00;;;;;;;4.36;100.00;99178.75;5037811;28;20023;-84
2023/12/08 08:31:09;;;;;;;0.00;0.00;;;;;;;4.90;100.00;99215.00;5021964;28;20499;-81
2023/12/08 08:59:01;;;;;;;;;;;;;;;;;;;;;
2023/12/08 09:02:41;;;;;;;;;;;;;;;;;;;;;
2023/12/08 09:08:35;;;;;;;0.00;0.00;;;;;;;6.05;100.00;99189.13;4990791;28;20434;-81
2023/12/08 09:15:05;;;;;;;0.00;0.00;;;;;;;6.56;100.00;99203.94;5038189;28;20040;-82
2023/12/08 09:18:22;;;;;;;0.10;0.10;;;;;;;6.85;100.00;99206.13;4992896;28;20062;-83
2023/12/08 09:31:25;;;;;;;0.00;0.00;;;;;;;9.03;100.00;99197.69;4940383;28;20058;-82
2023/12/08 09:34:44;;;;;;;;;;;;;;;;;;;;;
2023/12/08 09:37:19;;;;;;;0.00;0.00;;;;;;;12.79;100.00;99217.25;4985016;28;20452;-85
2023/12/08 09:39:47;;;;;;;0.05;0.05;;;;;;;13.78;100.00;99225.47;4993878;28;20129;-87
2023/12/08 09:42:38;;;;;;;0.00;0.00;;;;;;;14.63;100.00;99264.88;4988098;28;20068;-82
2023/12/08 09:45:27;;;;;;;0.00;0.00;;;;;;;15.10;100.00;99267.84;5070401;27;20032;-79
2023/12/08 09:48:38;;;;;;;0.00;0.00;;;;;;;15.40;100.00;99220.31;5051179;28;20028;-79
2023/12/08 09:51:33;;;;;;;0.00;0.00;;;;;;;16.19;100.00;99234.63;5080236;28;20047;-82
2023/12/08 09:53:59;;;;;;;0.00;0.00;;;;;;;17.26;100.00;99249.00;5074369;28;20024;-81
2023/12/08 09:56:26;;;;;;;0.00;0.00;;;;;;;18.04;97.12;99254.03;5084652;28;20394;-86
2023/12/08 09:58:58;;;;;;;0.00;0.00;;;;;;;18.79;90.86;99238.97;5098891;28;20056;-84
2023/12/08 10:01:29;;;;;;;0.00;0.00;;;;;;;19.84;81.66;99237.97;5062125;28;20036;-80
2023/12/08 10:04:00;;;;;;;0.00;0.00;;;;;;;20.43;77.73;99279.81;5060454;28;20082;-81
2023/12/08 10:06:28;;;;;;;0.00;0.00;;;;;;;20.63;72.41;99258.44;5068527;28;20057;-84
2023/12/08 10:09:00;;;;;;;0.00;0.00;;;;;;;20.92;70.26;99261.88;5066836;28;20757;-81
2023/12/08 10:11:26;;;;;;;0.00;0.00;;;;;;;21.24;69.44;99284.00;5047555;28;20059;-80
2023/12/08 10:14:04;;;;;;;;;;;;;;;;;;;;;
2023/12/08 10:16:47;;;;;;;0.00;0.00;;;;;;;21.72;62.59;99292.91;5080993;28;20048;-85
2023/12/08 10:19:25;;;;;;;0.00;0.00;;;;;;;21.64;59.36;99256.97;5082782;28;20038;-83
2023/12/08 10:22:03;;;;;;;0.00;0.00;;;;;;;21.09;59.13;99239.22;5062705;28;20031;-82
2023/12/08 10:24:41;;;;;;;0.00;0.00;;;;;;;20.86;59.22;99260.56;5061518;28;20024;-82
2023/12/08 10:27:32;;;;;;;0.00;0.00;;;;;;;21.52;59.90;99269.06;5068056;28;20039;-81
2023/12/08 10:30:12;;;;;;;;;;;;;;;;;;;;;
2023/12/08 10:32:42;;;;;;;0.00;0.00;;;;;;;23.16;49.21;99284.06;5084699;28;20018;-81
2023/12/08 10:35:17;;;;;;;0.00;0.00;;;;;;;23.08;50.27;99271.16;5042195;28;20046;-83
2023/12/08 10:38:02;;;;;;;0.00;0.00;;;;;;;23.53;47.36;99279.69;5063179;28;20046;-83
2023/12/08 10:40:40;;;;;;;0.00;0.00;;;;;;;23.52;48.14;99248.22;5070434;28;20043;-87
2023/12/08 10:43:22;;;;;;;0.00;0.00;;;;;;;24.26;47.05;99281.22;5071030;28;20041;-78
2023/12/08 10:46:17;;;;;;;0.00;0.00;;;;;;;24.90;46.42;99276.09;5048774;28;20055;-77
2023/12/08 10:48:44;;;;;;;;;;;;;;;25.93;44.36;99302.06;5069328;28;20024;-77
2023/12/08 10:51:32;;;;;;;0.00;0.00;;;;;;;26.03;42.10;99254.88;5060299;28;19908;-78
2023/12/08 10:54:08;;;;;;;0.00;0.00;;;;;;;26.02;41.63;99292.47;5069182;28;20028;-78
2023/12/08 10:59:53;;;;;;;0.00;0.00;;;;;;;25.32;41.32;99239.53;5067969;28;20050;-80
2023/12/08 11:03:21;;;;;;;;;;;;;;;;;;;;;
2023/12/08 11:05:38;;;;;;;0.10;0.10;;;;;;;25.70;39.83;99273.59;5064326;28;20054;-81
2023/12/08 11:25:32;;;;;;;0.00;0.00;;;;;;;29.28;30.33;99270.66;5074589;28;20096;-88
2023/12/08 11:28:56;;;;;;;0.00;0.00;;;;;;;27.86;30.33;99237.47;4985050;28;20038;-84
2023/12/08 11:32:09;;;;;;;0.00;0.00;;;;;;;24.81;34.39;99270.06;4977582;28;20022;-85
2023/12/08 11:34:52;;;;;;;0.00;0.00;;;;;;;24.35;35.59;99284.47;5039424;28;20035;-78
2023/12/08 11:37:21;;;;;;;0.00;0.00;;;;;;;23.22;36.83;99244.66;5079318;28;20082;-78
2023/12/08 11:40:26;;;;;;;0.00;0.00;;;;;;;23.17;37.04;99232.69;5070723;28;20036;-82
2023/12/08 11:42:56;;;;;;;0.00;0.00;;;;;;;25.69;34.52;99274.81;5084368;28;20428;-81
2023/12/08 11:45:48;;;;;;;0.00;0.00;;;;;;;25.99;32.17;99242.84;5074955;28;20023;-81
2023/12/08 11:48:43;;;;;;;0.00;0.00;;;;;;;25.37;33.52;99253.13;5054950;28;20034;-82
2023/12/08 11:51:29;;;;;;;0.00;0.00;;;;;;;25.48;33.67;99251.19;5061289;28;20035;-84
2023/12/08 11:54:43;;;;;;;;;;;;;;;;;;;;;
2023/12/08 11:57:12;;;;;;;0.00;0.00;;;;;;;26.52;32.48;99235.59;5060014;28;20044;-81
2023/12/08 12:00:48;;;;;;;;;;;;;;;;;;;;;
2023/12/08 12:03:31;;;;;;;;;;;;;;;;;;;;;
2023/12/08 12:06:59;;;;;;;;;;;;;;;;;;;;;
2023/12/08 12:19:21;;;;;;;0.00;0.00;;;;;;;17.86;45.83;99237.63;4970647;28;20034;-83
2023/12/08 12:26:12;;;;;;;;;;;;;;;;;;;;;
2023/12/08 12:29:20;;;;;;;0.00;0.00;;;;;;;18.16;47.88;99251.25;5010185;28;20029;-81
2023/12/08 12:32:14;;;;;;;0.00;0.00;;;;;;;17.59;48.38;99242.63;4994402;28;20701;-81
2023/12/08 12:42:15;;;;;;;0.00;0.00;;;;;;;16.95;49.85;99226.53;4953081;28;20095;-84
2023/12/08 12:48:06;;;;;;;0.00;0.00;;;;;;;19.59;44.63;99265.00;4911376;29;20127;-83
2023/12/08 12:51:07;;;;;;;0.00;0.00;;;;;;;18.57;46.41;99249.38;4905178;29;20084;-82
2023/12/08 12:57:50;;;;;;;;;;;;;;;;;;;;;
2023/12/08 13:03:55;;;;;;;0.00;0.00;;;;;;;15.98;52.86;99307.06;4991148;28;20050;-82
2023/12/08 13:07:23;;;;;;;0.00;0.00;;;;;;;15.32;52.32;99224.72;4996393;28;20035;-81
2023/12/08 13:09:57;;;;;;;0.00;0.00;;;;;;;14.29;56.48;99256.22;4971164;28;20123;-83
2023/12/08 13:12:58;;;;;;;0.00;0.00;;;;;;;14.11;57.39;99247.09;5036212;28;20032;-81
2023/12/08 13:16:06;;;;;;;;;;;;;;;;;;;;;
2023/12/08 13:19:02;;;;;;;0.00;0.00;;;;;;;14.33;57.25;99267.38;5029343;28;20016;-82
2023/12/08 13:22:13;;;;;;;0.00;0.00;;;;;;;13.99;58.44;99262.56;5007997;28;20032;-82
2023/12/08 13:24:41;;;;;;;0.00;0.00;;;;;;;13.92;59.43;99296.00;5023753;28;20040;-79
2023/12/08 13:27:23;;;;;;;0.00;0.00;;;;;;;13.22;60.58;99246.13;5020455;28;20045;-79
2023/12/08 13:29:57;;;;;;;0.00;0.00;;;;;;;13.14;62.63;99294.38;5021137;28;20167;-82
2023/12/08 13:32:59;;;;;;;0.00;0.00;;;;;;;12.85;63.51;99302.97;5012376;28;20091;-80
2023/12/08 13:35:36;;;;;;;0.00;0.00;;;;;;;12.25;65.00;99252.69;4928816;28;20046;-81
2023/12/08 13:38:01;;;;;;;0.00;0.00;;;;;;;12.25;65.75;99280.13;4951605;28;20599;-82
2023/12/08 13:40:55;;;;;;;0.00;0.00;;;;;;;11.86;66.95;99240.28;5039367;28;20029;-81
2023/12/08 13:43:21;;;;;;;0.00;0.00;;;;;;;11.86;68.16;99273.97;5013526;28;20021;-80
2023/12/08 13:45:58;;;;;;;0.00;0.00;;;;;;;11.76;68.95;99268.66;5029119;28;20036;-79
2023/12/08 13:48:48;;;;;;;;;;;;;;;;;;;;;
2023/12/08 13:51:27;;;;;;;;;;;;;;;;;;;;;
2023/12/08 13:54:00;;;;;;;0.00;0.00;;;;;;;11.96;69.89;99300.41;5024731;28;20045;-83
2023/12/08 13:56:45;;;;;;;0.00;0.00;;;;;;;11.56;70.10;99245.22;5033990;28;20048;-84
2023/12/08 13:59:11;;;;;;;0.00;0.00;;;;;;;11.70;70.58;99280.84;5048271;28;20043;-85
2023/12/08 14:01:38;;;;;;;0.00;0.00;;;;;;;11.79;70.91;99289.97;5037402;28;20020;-83
2023/12/08 14:04:04;;;;;;;0.00;0.00;;;;;;;11.98;70.46;99320.06;5047560;28;20029;-85
2023/12/08 14:06:33;;;;;;;0.00;0.00;;;;;;;11.54;70.64;99296.72;5045008;28;20351;-84
2023/12/08 14:09:05;;;;;;;0.00;0.00;;;;;;;11.29;72.25;99282.34;5044333;28;20788;-83
2023/12/08 14:11:31;;;;;;;0.00;0.00;;;;;;;11.16;72.91;99294.06;5041834;28;20021;-83
2023/12/08 14:14:09;;;;;;;0.00;0.00;;;;;;;11.00;73.86;99290.75;5047615;28;20021;-83
2023/12/08 14:16:48;;;;;;;;;;;;;;;;;;;;;
2023/12/08 14:19:36;;;;;;;;;;;;;;;;;;;;;
2023/12/08 14:22:02;;;;;;;0.00;0.00;;;;;;;10.49;75.22;99259.47;5069533;28;20127;-81
2023/12/08 14:24:28;;;;;;;0.00;0.00;;;;;;;10.62;75.42;99280.59;5049230;28;20116;-83
2023/12/08 14:26:53;;;;;;;0.00;0.00;;;;;;;10.53;75.81;99276.91;5048970;28;20017;-81
2023/12/08 14:29:30;;;;;;;0.00;0.00;;;;;;;10.45;76.05;99258.41;5035672;28;20700;-84
2023/12/08 14:32:13;;;;;;;;;;;;;;;;;;;;;
2023/12/08 14:34:49;;;;;;;;;;;;;;;;;;;;;
2023/12/08 14:37:28;;;;;;;0.00;0.00;;;;;;;10.61;76.87;99281.69;5048799;28;20119;-80
2023/12/08 14:40:02;;;;;;;0.00;0.00;;;;;;;10.32;76.55;99238.06;5048778;28;20486;-82
2023/12/08 14:42:30;;;;;;;0.10;0.10;;;;;;;10.62;76.95;99291.53;5061097;28;20039;-79
2023/12/08 14:45:16;;;;;;;0.00;0.00;;;;;;;10.60;77.01;99288.28;5033015;28;20545;-79
2023/12/08 14:47:45;;;;;;;0.00;0.00;;;;;;;10.69;78.07;99318.53;5042851;28;20478;-80
2023/12/08 14:50:10;;;;;;;0.00;0.00;;;;;;;10.54;78.14;99305.03;5051705;28;20028;-80
2023/12/08 14:52:54;;;;;;;0.00;0.00;;;;;;;10.10;78.66;99257.72;5057445;28;20122;-78
2023/12/08 14:55:19;;;;;;;0.00;0.00;;;;;;;10.40;78.48;99324.09;5046668;28;20049;-83
2023/12/08 14:57:45;;;;;;;0.10;0.10;;;;;;;9.93;78.18;99261.75;5023368;28;20052;-82
2023/12/08 15:00:16;;;;;;;0.00;0.00;;;;;;;10.18;78.95;99286.31;5020858;28;20136;-80
2023/12/08 15:03:28;;;;;;;;;;;;;;;;;;;;;
2023/12/08 15:05:59;;;;;;;;;;;;;;;;;;;;;
2023/12/08 15:08:25;;;;;;;0.00;0.00;;;;;;;10.05;77.89;99305.03;5049372;28;20028;-82
2023/12/08 15:10:54;;;;;;;0.00;0.00;;;;;;;9.71;78.86;99270.44;5033229;28;20112;-83
2023/12/08 15:13:21;;;;;;;0.00;0.00;;;;;;;9.66;79.10;99288.78;5018486;28;20108;-84
2023/12/08 15:16:40;;;;;;;0.00;0.00;;;;;;;9.68;80.22;99332.97;5019726;28;20033;-78
2023/12/08 15:19:08;;;;;;;0.00;0.00;;;;;;;9.36;80.29;99315.22;4971824;28;20039;-81
2023/12/08 15:22:03;;;;;;;0.00;0.00;;;;;;;9.14;80.62;99291.97;5063185;28;20068;-78
2023/12/08 15:25:29;;;;;;;0.00;0.00;;;;;;;8.91;81.12;99274.38;5036622;28;20424;-80
2023/12/08 15:27:57;;;;;;;0.00;0.00;;;;;;;9.03;81.29;99304.03;4995524;28;20499;-80
2023/12/08 15:30:28;;;;;;;0.00;0.00;;;;;;;8.87;81.27;99287.75;5031607;28;20033;-81
2023/12/08 15:32:56;;;;;;;0.00;0.00;;;;;;;9.15;81.57;99350.84;5025998;28;20047;-79
2023/12/08 15:35:55;;;;;;;0.00;0.00;;;;;;;8.74;82.18;99297.38;5000977;28;20029;-82
2023/12/08 15:38:29;;;;;;;0.00;0.00;;;;;;;8.67;83.13;99304.22;5027177;28;20542;-81
2023/12/08 15:41:14;;;;;;;0.00;0.00;;;;;;;8.65;83.20;99301.00;4995174;28;20103;-81
2023/12/08 15:44:10;;;;;;;0.00;0.00;;;;;;;8.54;84.05;99295.59;5022378;28;20029;-81
2023/12/08 15:46:38;;;;;;;0.03;0.03;;;;;;;8.80;84.94;99352.69;5002225;28;20042;-82
2023/12/08 15:49:18;;;;;;;0.00;0.00;;;;;;;8.61;85.10;99327.16;5027317;28;20111;-80
2023/12/08 15:52:00;;;;;;;0.00;0.00;;;;;;;8.49;84.75;99305.69;5001742;28;20061;-82
2023/12/08 15:55:02;;;;;;;0.00;0.00;;;;;;;8.49;85.46;99320.13;5023372;28;20032;-82
2023/12/08 15:57:45;;;;;;;0.00;0.00;;;;;;;8.23;86.38;99311.19;5064403;28;20128;-80
2023/12/08 16:00:23;;;;;;;0.00;0.00;;;;;;;8.25;87.92;99319.94;5041287;28;20432;-81
2023/12/08 16:02:58;;;;;;;0.00;0.00;;;;;;;8.28;88.73;99349.31;5071160;28;20028;-81
2023/12/08 16:05:31;;;;;;;0.00;0.00;;;;;;;8.08;90.21;99331.13;5047511;28;20001;-81
2023/12/08 16:08:06;;;;;;;0.00;0.00;;;;;;;7.92;90.58;99310.47;5052256;28;20127;-80
2023/12/08 16:10:31;;;;;;;0.00;0.00;;;;;;;7.86;91.97;99310.47;5071539;28;20024;-79
2023/12/08 16:12:57;;;;;;;0.00;0.00;;;;;;;7.56;92.55;99277.88;5064117;28;20034;-78
2023/12/08 16:15:30;;;;;;;0.00;0.00;;;;;;;7.64;93.54;99299.09;5080981;28;20017;-80
2023/12/08 16:18:04;;;;;;;0.00;0.00;;;;;;;7.49;94.38;99281.69;5064671;28;20017;-80
2023/12/08 16:20:40;;;;;;;0.00;0.00;;;;;;;7.56;95.01;99302.38;5062417;28;20021;-79
2023/12/08 16:26:35;;;;;;;0.10;0.10;;;;;;;7.30;96.41;99275.16;4913434;29;20051;-77
2023/12/08 16:29:03;;;;;;;0.10;0.10;;;;;;;7.31;97.65;99290.41;4952496;28;20560;-75
2023/12/08 16:31:42;;;;;;;;;;;;;;;;;;;;;
2023/12/08 16:34:33;;;;;;;0.00;0.00;;;;;;;7.11;98.52;99256.69;4985141;28;20480;-82
2023/12/08 16:36:58;;;;;;;0.00;0.00;;;;;;;7.61;98.49;99338.56;4991618;28;20061;-76